createdAt,value
2022-11-19T04:12:21.907Z,26.99
2022-11-19T04:12:21.914Z,26.99
2022-11-19T11:07:22.150Z,28.54
2022-11-19T11:32:22.092Z,11.74
2022-11-19T12:12:22.087Z,12.97
2022-11-19T12:27:22.082Z,11.81
2022-11-19T12:47:22.098Z,13.15
2022-11-19T12:52:22.101Z,16.82
2022-11-19T12:57:22.099Z,18.16
2022-11-19T13:12:22.101Z,20.13
2022-11-19T13:17:22.101Z,16.31
2022-11-19T13:22:22.105Z,17.24
2022-11-19T13:27:23.376Z,18.48
2022-11-19T13:37:22.086Z,22.19
2022-11-19T13:42:22.084Z,26.42
2022-11-19T13:47:22.089Z,23.04
2022-11-19T13:52:22.124Z,17.1
2022-11-19T13:57:22.110Z,22.83
2022-11-19T14:02:22.121Z,27.95
2022-11-19T14:07:23.621Z,24.28
2022-11-19T14:12:22.127Z,23.94
2022-11-19T14:17:22.086Z,15.96
2022-11-19T14:22:22.128Z,17.54
2022-11-19T14:27:22.130Z,21.98
2022-11-19T14:32:22.126Z,20.68
2022-11-19T14:37:22.101Z,14.71
2022-11-19T14:42:22.101Z,12.98
2022-11-19T14:47:22.108Z,13.22
2022-11-19T14:52:22.106Z,15.61
2022-11-19T14:57:22.130Z,17.59
2022-11-19T15:02:22.105Z,18.23
2022-11-19T15:07:22.227Z,19.84
2022-11-19T15:12:22.115Z,20.67
2022-11-19T15:17:22.138Z,23.04
2022-11-19T15:22:22.144Z,24.76
2022-11-19T15:27:22.154Z,26.67
2022-11-19T15:37:22.116Z,32.07
2022-11-19T15:42:22.129Z,35.61
2022-11-19T15:52:22.165Z,69.08
2022-11-19T15:57:22.126Z,60.69
2022-11-19T16:02:22.122Z,46.14
2022-11-19T16:07:22.207Z,65.83
2022-11-19T16:32:22.134Z,98.04
2022-11-19T16:37:22.135Z,74.9
2022-11-19T16:42:22.141Z,48.57
2022-11-19T17:47:23.425Z,158.36
2022-11-19T20:32:22.206Z,66.13
